Detmold, Missouri
Current Conditions -  °F | °C
As of 11:55 AM on Thursday 18 Dec 2014 (Local Time) from KFYG Reporting Station
Light Snow Light Snow  
Wind Chill: 32°   Ceiling: Unl
Heat Index: 32°   Visibility: 3mi
Dew Point: 28°   Wind: 3mph
Humidity: 87%   Direction: 130°SE
Pressure: 30.25"   Gusts: NA
Location:  38.5502°N, 91.2585°W
Report Text: KFYG 181755Z AUTO 13003KT 3SM -SN FEW009 SCT013 00/M02 A3025 RMK AO2 P0002
Loading
Personal Weather Stations






























Interactive Weather Map New forecast layout! Learn more

10-Day Weather Forecast

Advertisements
Track Severe Weather on mobile